createdAt,value
2018-07-12T00:02:22.096Z,23.37
2018-07-12T00:07:24.278Z,21.93
2018-07-12T00:12:29.518Z,21.60
2018-07-12T00:17:31.738Z,23.10
2018-07-12T00:22:33.930Z,22.07
2018-07-12T00:27:36.102Z,21.40
2018-07-12T00:32:38.282Z,23.90
2018-07-12T00:37:40.490Z,26.07
2018-07-12T00:42:42.668Z,21.87
2018-07-12T00:47:44.854Z,22.77
2018-07-12T00:52:47.051Z,23.17
2018-07-12T00:57:49.253Z,28.07
2018-07-12T01:02:51.434Z,25.57
2018-07-12T01:07:53.613Z,22.93
2018-07-12T01:12:55.798Z,26.23
2018-07-12T01:17:57.982Z,27.47
2018-07-12T01:23:01.163Z,23.57
2018-07-12T01:28:03.341Z,24.10
2018-07-12T01:33:05.531Z,23.87
2018-07-12T01:38:07.734Z,26.07
2018-07-12T01:43:10.206Z,26.53
2018-07-12T01:48:12.693Z,24.30
2018-07-12T01:53:14.903Z,25.97
2018-07-12T01:58:17.082Z,30.97
2018-07-12T02:03:19.254Z,25.83
2018-07-12T02:08:21.449Z,24.70
2018-07-12T02:13:23.630Z,25.83
2018-07-12T02:18:25.914Z,23.50
2018-07-12T02:23:28.127Z,26.83
2018-07-12T02:28:30.290Z,27.00
2018-07-12T02:33:32.498Z,23.23
2018-07-12T02:38:34.678Z,22.60
2018-07-12T02:43:36.862Z,24.83
2018-07-12T02:48:39.079Z,28.70
2018-07-12T02:53:41.256Z,29.57
2018-07-12T02:58:43.438Z,32.33
2018-07-12T03:03:45.680Z,33.57
2018-07-12T03:08:47.882Z,35.00
2018-07-12T03:13:50.231Z,31.63
2018-07-12T03:18:52.458Z,34.90
2018-07-12T03:23:54.653Z,30.70
2018-07-12T03:28:56.845Z,30.60
2018-07-12T03:33:59.998Z,37.43
2018-07-12T03:39:02.190Z,36.07
2018-07-12T03:44:04.362Z,32.60
2018-07-12T03:49:06.562Z,32.53
2018-07-12T03:54:08.743Z,33.53
2018-07-12T03:59:10.966Z,37.87
2018-07-12T04:04:13.181Z,35.53
2018-07-12T04:09:15.434Z,35.30
2018-07-12T04:14:17.697Z,40.03
2018-07-12T04:19:19.894Z,34.50
2018-07-12T04:24:25.548Z,41.27
2018-07-12T04:29:27.779Z,34.70
2018-07-12T04:34:29.979Z,37.53
2018-07-12T04:39:32.194Z,37.50
2018-07-12T04:44:34.404Z,41.20
2018-07-12T04:49:36.606Z,40.40
2018-07-12T04:54:38.792Z,39.93
2018-07-12T04:59:40.990Z,38.67
2018-07-12T05:04:43.170Z,38.67
2018-07-12T05:09:45.562Z,42.33
2018-07-12T05:14:47.733Z,37.70
2018-07-12T05:19:49.914Z,38.80
2018-07-12T05:24:52.117Z,40.93
2018-07-12T05:29:54.330Z,36.03
2018-07-12T05:34:56.498Z,36.60
2018-07-12T05:39:59.663Z,33.63
2018-07-12T05:45:06.422Z,28.47
2018-07-12T05:50:09.633Z,30.13
2018-07-12T05:55:12.795Z,35.90
2018-07-12T06:00:16.757Z,32.40
2018-07-12T06:05:19.902Z,32.27
2018-07-12T06:10:23.219Z,31.13
2018-07-12T06:15:26.299Z,32.70
2018-07-12T06:20:29.486Z,32.87
2018-07-12T06:25:33.529Z,34.50
2018-07-12T06:30:36.654Z,35.60
2018-07-12T06:35:39.811Z,37.40
2018-07-12T06:40:42.987Z,44.37
2018-07-12T06:45:46.175Z,43.97
2018-07-12T06:50:49.430Z,42.37
2018-07-12T06:55:52.750Z,34.87
2018-07-12T07:00:55.954Z,39.27
2018-07-12T07:05:59.150Z,41.40
2018-07-12T07:11:03.370Z,41.67
2018-07-12T07:16:07.301Z,41.50
2018-07-12T07:21:10.618Z,44.13
2018-07-12T07:26:13.832Z,42.77
2018-07-12T07:31:17.011Z,43.27
2018-07-12T07:36:20.266Z,42.97
2018-07-12T07:41:24.345Z,42.90
2018-07-12T07:46:27.538Z,43.37
2018-07-12T07:51:30.712Z,40.83
2018-07-12T07:56:33.898Z,38.27
2018-07-12T08:01:37.125Z,39.73
2018-07-12T08:06:40.370Z,40.77
2018-07-12T08:11:43.665Z,47.87
2018-07-12T08:16:46.808Z,42.37
2018-07-12T08:21:50.262Z,41.07
2018-07-12T08:26:53.642Z,42.03
2018-07-12T08:31:56.843Z,42.83
2018-07-12T08:37:00.074Z,38.00
2018-07-12T08:42:03.191Z,38.67
2018-07-12T08:47:06.373Z,44.30
2018-07-12T08:52:10.358Z,35.40
2018-07-12T08:57:13.576Z,36.47
2018-07-12T09:02:16.782Z,33.47
2018-07-12T09:07:20.138Z,40.20
2018-07-12T09:12:23.331Z,35.63
2018-07-12T09:17:26.464Z,36.20
2018-07-12T09:22:29.658Z,30.33
2018-07-12T09:27:32.901Z,51.43
2018-07-12T09:32:36.174Z,56.00
2018-07-12T09:37:39.693Z,57.73
2018-07-12T09:42:42.890Z,42.53
2018-07-12T09:47:47.086Z,53.23
2018-07-12T09:52:50.275Z,66.97
2018-07-12T09:58:05.814Z,73.50
2018-07-12T10:03:14.625Z,68.27
2018-07-12T10:08:24.224Z,45.47
2018-07-12T10:13:31.719Z,47.87
2018-07-12T10:18:34.882Z,39.00
2018-07-12T10:23:38.106Z,27.50
2018-07-12T10:28:41.346Z,32.13
2018-07-12T10:33:44.565Z,32.87
2018-07-12T10:38:48.946Z,27.87
2018-07-12T10:43:52.205Z,34.97
2018-07-12T10:48:55.398Z,32.13
2018-07-12T10:53:58.690Z,28.27
2018-07-12T10:59:01.907Z,28.67
2018-07-12T11:04:06.617Z,36.80
2018-07-12T11:09:11.066Z,41.93
2018-07-12T11:14:18.342Z,42.57
2018-07-12T11:19:22.231Z,28.90
2018-07-12T11:24:26.500Z,27.33
2018-07-12T11:29:43.006Z,26.60
2018-07-12T11:34:48.856Z,17.37
2018-07-12T11:39:53.079Z,17.77
2018-07-12T11:45:01.727Z,19.80
2018-07-12T11:50:05.048Z,21.03
2018-07-12T11:55:08.196Z,18.90
2018-07-12T12:00:11.452Z,16.30
2018-07-12T12:05:14.650Z,14.23
2018-07-12T12:10:17.869Z,16.00
2018-07-12T12:15:23.193Z,12.53
2018-07-12T12:20:26.494Z,11.73
2018-07-12T12:25:30.286Z,11.73
2018-07-12T12:30:41.330Z,11.20
2018-07-12T12:35:47.838Z,12.13
2018-07-12T12:40:51.482Z,8.77
2018-07-12T12:45:54.690Z,10.93
2018-07-12T12:51:13.081Z,13.73
2018-07-12T12:56:16.289Z,9.47
2018-07-12T13:01:19.463Z,12.47
2018-07-12T13:06:23.166Z,8.63
2018-07-12T13:11:26.311Z,6.47
2018-07-12T13:16:29.490Z,5.83
2018-07-12T13:21:32.455Z,7.50
2018-07-12T13:26:35.621Z,9.07
2018-07-12T13:31:39.986Z,7.50
2018-07-12T13:36:43.225Z,7.07
2018-07-12T13:41:50.142Z,8.03
2018-07-12T13:46:54.952Z,6.87
2018-07-12T13:51:59.831Z,5.03
2018-07-12T13:57:03.012Z,6.57
2018-07-12T14:02:06.587Z,7.03
2018-07-12T14:07:09.739Z,7.30
2018-07-12T14:12:12.996Z,6.40
2018-07-12T14:17:15.987Z,7.47
2018-07-12T14:22:19.176Z,4.70
2018-07-12T14:27:26.731Z,9.67
2018-07-12T14:32:30.682Z,7.87
2018-07-12T14:37:33.890Z,7.80
2018-07-12T14:42:37.025Z,6.13
2018-07-12T14:47:40.182Z,6.57
2018-07-12T14:52:43.393Z,5.63
2018-07-12T14:57:46.585Z,6.00
2018-07-12T15:02:49.774Z,8.17
2018-07-12T15:07:52.957Z,5.97
2018-07-12T15:12:56.086Z,5.17
2018-07-12T15:17:59.306Z,5.60
2018-07-12T15:23:02.504Z,6.57
2018-07-12T15:28:05.937Z,3.47
2018-07-12T15:33:08.831Z,4.63
2018-07-12T15:38:11.970Z,4.57
2018-07-12T15:43:15.140Z,4.77
2018-07-12T15:48:18.286Z,8.40
2018-07-12T15:53:21.484Z,8.43
2018-07-12T15:58:24.658Z,9.87
2018-07-12T16:03:27.883Z,8.40
2018-07-12T16:08:31.142Z,10.30
2018-07-12T16:13:34.399Z,10.33
2018-07-12T16:18:37.489Z,9.60
2018-07-12T16:23:40.631Z,9.90
2018-07-12T16:28:43.795Z,9.83
2018-07-12T16:33:46.959Z,11.73
2018-07-12T16:38:50.151Z,13.13
2018-07-12T16:43:53.285Z,14.37
2018-07-12T16:48:56.430Z,11.30
2018-07-12T16:53:59.546Z,14.50
2018-07-12T16:59:02.767Z,9.77
2018-07-12T17:04:05.978Z,10.17
2018-07-12T17:09:09.140Z,10.10
2018-07-12T17:14:12.417Z,5.73
2018-07-12T17:19:15.486Z,8.00
2018-07-12T17:24:18.854Z,5.43
2018-07-12T17:29:21.774Z,5.50
2018-07-12T17:34:24.988Z,6.57
2018-07-12T17:39:28.157Z,6.03
2018-07-12T17:44:32.295Z,12.27
2018-07-12T17:49:35.623Z,6.30
2018-07-12T17:54:38.761Z,8.00
2018-07-12T17:59:41.902Z,9.47
2018-07-12T18:04:45.036Z,6.67
2018-07-12T18:09:48.170Z,8.40
2018-07-12T18:14:51.337Z,11.43
2018-07-12T18:19:54.502Z,10.00
2018-07-12T18:24:57.657Z,11.30
2018-07-12T18:30:00.790Z,9.07
2018-07-12T18:35:03.976Z,8.57
2018-07-12T18:40:07.123Z,8.73
2018-07-12T18:45:10.283Z,8.97
2018-07-12T18:50:13.422Z,8.03
2018-07-12T18:55:16.583Z,9.13
2018-07-12T19:00:19.746Z,10.53
2018-07-12T19:05:22.912Z,11.03
2018-07-12T19:10:26.078Z,11.40
2018-07-12T19:15:29.278Z,11.33
2018-07-12T19:20:32.402Z,11.93
2018-07-12T19:25:35.559Z,9.43
2018-07-12T19:30:38.723Z,10.80
2018-07-12T19:35:41.854Z,9.93
2018-07-12T19:40:44.994Z,14.93
2018-07-12T19:45:48.200Z,10.70
2018-07-12T19:50:53.449Z,12.53
2018-07-12T19:55:56.741Z,11.20
2018-07-12T20:00:59.966Z,12.53
2018-07-12T20:06:03.204Z,11.60
2018-07-12T20:11:06.366Z,11.07
2018-07-12T20:16:11.550Z,11.67
2018-07-12T20:21:14.746Z,11.10
2018-07-12T20:26:17.886Z,11.27
2018-07-12T20:31:26.182Z,9.97
2018-07-12T20:36:42.665Z,12.70
2018-07-12T20:41:45.863Z,10.03
2018-07-12T20:46:49.008Z,9.93
2018-07-12T20:51:52.185Z,11.33
2018-07-12T20:56:55.327Z,9.40
2018-07-12T21:01:58.479Z,12.07
2018-07-12T21:07:01.648Z,11.33
2018-07-12T21:12:04.823Z,12.57
2018-07-12T21:17:08.086Z,10.80
2018-07-12T21:22:11.294Z,9.43
2018-07-12T21:27:14.434Z,11.73
2018-07-12T21:32:17.575Z,9.97
2018-07-12T21:37:20.926Z,10.30
2018-07-12T21:42:24.183Z,11.23
2018-07-12T21:47:27.334Z,13.37
2018-07-12T21:52:30.458Z,13.47
2018-07-12T21:57:33.782Z,14.53
2018-07-12T22:02:36.910Z,12.60
2018-07-12T22:07:53.107Z,16.17
2018-07-12T22:12:56.266Z,13.27
2018-07-12T22:17:59.560Z,14.00
2018-07-12T22:23:02.802Z,14.23
2018-07-12T22:28:06.023Z,13.30
2018-07-12T22:33:09.220Z,12.57
2018-07-12T22:38:12.346Z,12.63
2018-07-12T22:43:15.551Z,12.60
2018-07-12T22:48:18.925Z,14.33
2018-07-12T22:53:22.783Z,11.87
2018-07-12T22:58:25.926Z,12.47
2018-07-12T23:03:29.085Z,14.07
2018-07-12T23:08:32.262Z,13.93
2018-07-12T23:13:35.398Z,15.23
2018-07-12T23:18:38.551Z,15.63
2018-07-12T23:23:41.698Z,14.30
2018-07-12T23:28:44.830Z,13.67
2018-07-12T23:33:47.950Z,13.17
2018-07-12T23:38:51.962Z,15.70
2018-07-12T23:43:55.075Z,13.40
2018-07-12T23:48:58.185Z,11.23
2018-07-12T23:54:01.333Z,13.53
2018-07-12T23:59:04.490Z,11.60
